Oude Pekela, Netherlands
Current Conditions -  °F | °C
As of 12:55 AM on Tuesday 21 Oct 2014 (Local Time) from EHGG Reporting Station
Broken Clouds Broken Clouds  
Wind Chill: 54°   Ceiling: 1500
Heat Index: 54°   Visibility: 6mi
Dew Point: 54°   Wind: 9mph
Humidity: 100%   Direction: 210°SSW
Pressure: 29.8"   Gusts: NA
Location:  53.1°N, 7.01°E
Report Text: EHGG 202255Z AUTO 21008KT 9999 BKN015CB 12/12 Q1009 REDZ
Loading
Personal Weather Stations






























Interactive Weather Map
Tropical Storm Tracking
New forecast layout! Learn more

10-Day Weather Forecast

Advertisements
Track Severe Weather on mobile